Time;durP1;ratioP1;P1;durP2;ratioP2;P2;SDS_P1;SDS_P2;PMS_P1;PMS_P2;Temp;Humidity;BMP_temperature;BMP_pressure;BME280_temperature;BME280_humidity;BME280_pressure;Samples;Min_cycle;Max_cycle;Signal;HPM_P1;HPM_P2
2022/05/19 00:01:29;;;;;;;3.60;2.80;;;19.70;1.00;;;;;;7362450;19;20018;-59
2022/05/19 00:04:02;;;;;;;4.80;2.70;;;19.80;1.00;;;;;;7363096;19;20270;-60
2022/05/19 00:06:32;;;;;;;2.70;2.35;;;19.80;1.00;;;;;;7384046;19;20546;-59
2022/05/19 00:09:02;;;;;;;5.03;2.65;;;19.80;1.00;;;;;;7355360;19;20011;-59
2022/05/19 00:11:34;;;;;;;2.97;2.47;;;19.80;1.00;;;;;;7362090;19;20006;-59
2022/05/19 00:14:04;;;;;;;5.03;2.33;;;19.60;1.00;;;;;;7369099;19;20015;-59
2022/05/19 00:16:34;;;;;;;4.25;2.55;;;19.60;1.00;;;;;;7369407;19;20011;-59
2022/05/19 00:19:07;;;;;;;3.72;2.80;;;19.60;1.00;;;;;;7359421;19;20019;-60
2022/05/19 00:21:37;;;;;;;3.47;2.30;;;19.70;1.00;;;;;;7391539;19;20033;-59
2022/05/19 00:24:08;;;;;;;4.22;2.55;;;19.70;1.00;;;;;;7366917;19;20024;-59
2022/05/19 00:26:38;;;;;;;2.80;2.28;;;19.60;1.00;;;;;;7370743;19;20018;-59
2022/05/19 00:29:08;;;;;;;4.50;2.30;;;19.70;1.00;;;;;;7362648;19;20082;-59
2022/05/19 00:31:38;;;;;;;4.45;2.30;;;19.70;1.00;;;;;;7368944;19;20085;-59
2022/05/19 00:34:11;;;;;;;2.83;2.25;;;19.60;1.00;;;;;;7369891;19;20022;-59
2022/05/19 00:36:41;;;;;;;3.83;2.45;;;19.60;1.00;;;;;;7392628;19;20031;-59
2022/05/19 00:39:12;;;;;;;2.63;2.40;;;19.50;1.00;;;;;;7360151;19;20011;-59
2022/05/19 00:41:44;;;;;;;6.80;2.40;;;19.60;1.00;;;;;;7367441;19;20082;-60
2022/05/19 00:44:15;;;;;;;4.15;2.50;;;19.50;1.00;;;;;;7368236;19;20015;-60
2022/05/19 00:46:49;;;;;;;2.78;2.20;;;19.40;1.00;;;;;;7369970;19;20013;-60
2022/05/19 00:49:26;;;;;;;3.35;2.20;;;19.50;1.00;;;;;;7363991;19;20022;-60
2022/05/19 00:52:03;;;;;;;2.50;2.22;;;19.40;1.00;;;;;;7385267;19;20018;-61
2022/05/19 00:54:45;;;;;;;4.30;2.40;;;19.30;1.00;;;;;;7389245;19;20014;-61
2022/05/19 00:57:19;;;;;;;3.92;2.03;;;19.20;1.00;;;;;;7368648;19;20098;-60
2022/05/19 00:59:53;;;;;;;2.28;1.90;;;19.20;1.00;;;;;;7361827;19;20029;-60
2022/05/19 01:02:27;;;;;;;3.72;2.15;;;19.10;1.00;;;;;;7367318;19;20015;-60
2022/05/19 01:05:04;;;;;;;5.75;2.05;;;19.10;1.00;;;;;;7366254;19;20014;-59
2022/05/19 01:07:38;;;;;;;2.83;2.28;;;19.10;1.00;;;;;;7365279;19;20010;-59
2022/05/19 01:10:09;;;;;;;4.10;2.50;;;19.00;1.00;;;;;;7366319;19;20019;-59
2022/05/19 01:12:40;;;;;;;2.60;2.17;;;18.90;1.00;;;;;;7388028;19;20014;-59
2022/05/19 01:15:11;;;;;;;3.35;2.05;;;18.90;1.00;;;;;;7366252;19;20014;-59
2022/05/19 01:17:41;;;;;;;2.35;2.15;;;18.90;1.00;;;;;;7366931;19;20021;-59
2022/05/19 01:20:18;;;;;;;4.55;2.20;;;18.90;1.00;;;;;;7365545;19;20014;-59
2022/05/19 01:22:55;;;;;;;2.22;2.03;;;18.70;1.00;;;;;;7365603;19;20085;-59
2022/05/19 01:25:35;;;;;;;4.25;1.98;;;18.90;1.00;;;;;;7366750;19;20077;-59
2022/05/19 01:28:07;;;;;;;3.03;2.28;;;18.80;1.00;;;;;;7364085;19;20093;-60
2022/05/19 01:30:37;;;;;;;2.42;2.10;;;18.60;1.00;;;;;;7386258;19;20020;-59
2022/05/19 01:33:08;;;;;;;4.65;2.20;;;18.50;1.00;;;;;;7368570;19;20010;-59
2022/05/19 01:35:38;;;;;;;2.17;1.90;;;18.50;1.00;;;;;;7366532;19;20007;-61
2022/05/19 01:38:17;;;;;;;2.58;2.10;;;18.60;1.00;;;;;;7365998;19;20089;-60
2022/05/19 01:41:03;;;;;;;2.90;2.22;;;18.60;1.00;;;;;;7361809;19;20021;-60
2022/05/19 01:43:45;;;;;;;4.00;2.25;;;18.40;1.00;;;;;;7368987;19;20078;-60
2022/05/19 01:46:21;;;;;;;3.28;2.35;;;18.40;1.00;;;;;;7367878;19;20021;-60
2022/05/19 01:48:55;;;;;;;4.05;2.15;;;18.20;1.00;;;;;;7386821;19;20006;-59
2022/05/19 01:51:30;;;;;;;4.57;2.30;;;18.30;1.00;;;;;;7364073;19;20506;-58
2022/05/19 01:54:06;;;;;;;2.95;2.13;;;18.40;1.00;;;;;;7366122;19;20014;-59
2022/05/19 01:56:42;;;;;;;4.25;2.38;;;18.30;1.00;;;;;;7366632;19;20022;-59
2022/05/19 01:59:21;;;;;;;5.35;2.58;;;18.30;1.00;;;;;;7360795;19;20513;-59
2022/05/19 02:01:57;;;;;;;3.70;2.45;;;18.30;1.00;;;;;;7364533;19;20010;-59
2022/05/19 02:04:34;;;;;;;4.10;2.08;;;18.40;1.00;;;;;;7365445;19;20014;-59
2022/05/19 02:07:07;;;;;;;4.13;2.42;;;18.30;1.00;;;;;;7366969;19;20220;-59
2022/05/19 02:09:42;;;;;;;3.03;2.72;;;18.20;1.00;;;;;;7383048;19;20078;-59
2022/05/19 02:12:13;;;;;;;6.18;2.47;;;18.20;1.00;;;;;;7363672;19;20010;-59
2022/05/19 02:14:49;;;;;;;3.35;2.60;;;18.30;1.00;;;;;;7364974;19;20082;-59
2022/05/19 02:17:22;;;;;;;2.78;2.22;;;18.30;1.00;;;;;;7367279;19;20524;-59
2022/05/19 02:19:57;;;;;;;5.45;2.45;;;18.30;1.00;;;;;;7352563;19;20022;-59
2022/05/19 02:22:32;;;;;;;3.08;2.53;;;18.30;1.00;;;;;;7363489;19;20021;-59
2022/05/19 02:25:07;;;;;;;4.80;2.55;;;18.10;1.00;;;;;;7386941;19;20024;-59
2022/05/19 02:27:41;;;;;;;4.43;2.60;;;18.00;1.00;;;;;;7365092;19;20002;-59
2022/05/19 02:30:22;;;;;;;3.72;2.47;;;18.00;1.00;;;;;;7363542;19;20015;-59
2022/05/19 02:32:52;;;;;;;5.15;2.70;;;17.80;1.00;;;;;;7363013;19;20014;-59
2022/05/19 02:35:24;;;;;;;8.55;2.97;;;17.80;1.00;;;;;;7363519;19;20014;-59
2022/05/19 02:37:54;;;;;;;6.85;2.38;;;17.80;1.00;;;;;;7363095;19;20014;-59
2022/05/19 02:40:28;;;;;;;4.28;2.35;;;17.70;1.00;;;;;;7362659;19;20037;-59
2022/05/19 02:42:58;;;;;;;4.30;2.40;;;17.60;1.00;;;;;;7385434;19;20014;-59
2022/05/19 02:45:32;;;;;;;3.80;2.35;;;17.40;1.00;;;;;;7362128;19;20297;-59
2022/05/19 02:48:02;;;;;;;4.60;2.20;;;17.30;1.00;;;;;;7362047;19;20018;-58
2022/05/19 02:50:33;;;;;;;4.13;2.50;;;17.10;1.00;;;;;;7362873;19;20028;-59
2022/05/19 02:53:04;;;;;;;4.72;2.72;;;17.10;1.00;;;;;;7363284;19;20010;-59
2022/05/19 02:55:34;;;;;;;4.88;2.50;;;17.10;1.00;;;;;;7361938;19;20018;-59
2022/05/19 02:58:05;;;;;;;3.47;2.90;;;17.00;1.00;;;;;;7382023;19;20018;-59
2022/05/19 03:00:38;;;;;;;4.22;2.53;;;17.00;1.00;;;;;;7360416;19;20010;-59
2022/05/19 03:03:08;;;;;;;5.50;2.80;;;16.90;1.00;;;;;;7363587;19;20014;-59
2022/05/19 03:05:39;;;;;;;4.60;2.92;;;16.90;1.00;;;;;;7364543;19;20367;-58
2022/05/19 03:08:10;;;;;;;4.78;2.80;;;16.80;1.00;;;;;;7362453;19;20011;-59
2022/05/19 03:10:43;;;;;;;2.92;2.53;;;16.80;1.00;;;;;;7361527;19;20077;-59
2022/05/19 03:13:21;;;;;;;4.13;2.90;;;16.70;1.00;;;;;;7368850;19;20015;-60
2022/05/19 03:15:54;;;;;;;4.20;2.67;;;16.70;1.00;;;;;;7385543;19;20014;-59
2022/05/19 03:18:24;;;;;;;4.05;2.65;;;16.70;1.00;;;;;;7360628;19;20022;-60
2022/05/19 03:20:54;;;;;;;3.03;2.70;;;16.60;1.00;;;;;;7357996;19;20017;-60
2022/05/19 03:23:27;;;;;;;4.82;2.83;;;16.70;1.00;;;;;;7364662;19;20356;-59
2022/05/19 03:25:58;;;;;;;4.03;2.85;;;16.70;1.00;;;;;;7364266;19;20541;-59
2022/05/19 03:28:28;;;;;;;5.03;3.30;;;16.60;1.00;;;;;;7360315;19;20011;-59
2022/05/19 03:31:01;;;;;;;7.95;3.15;;;16.50;1.00;;;;;;7381505;19;20061;-59
2022/05/19 03:33:31;;;;;;;4.40;2.65;;;16.50;1.00;;;;;;7363798;19;20055;-59
2022/05/19 03:36:03;;;;;;;4.70;2.88;;;16.40;1.00;;;;;;7364572;19;20014;-59
2022/05/19 03:38:36;;;;;;;3.20;2.70;;;16.40;1.00;;;;;;7360297;19;20007;-59
2022/05/19 03:41:06;;;;;;;4.18;2.88;;;16.40;1.00;;;;;;7358522;19;20013;-59
2022/05/19 03:43:36;;;;;;;3.15;2.75;;;16.30;1.00;;;;;;7364745;19;20073;-59
2022/05/19 03:46:09;;;;;;;5.22;2.95;;;16.30;1.00;;;;;;7383770;19;20488;-59
2022/05/19 03:48:40;;;;;;;3.97;2.75;;;16.30;1.00;;;;;;7367510;19;20605;-59
2022/05/19 03:51:13;;;;;;;3.53;2.70;;;16.40;1.00;;;;;;7364931;19;20042;-59
2022/05/19 03:53:43;;;;;;;3.20;2.60;;;16.40;1.00;;;;;;7370398;19;20016;-59
2022/05/19 03:56:13;;;;;;;3.10;2.70;;;16.50;1.00;;;;;;7372065;19;20088;-59
2022/05/19 03:58:43;;;;;;;3.83;2.50;;;16.90;1.00;;;;;;7366816;19;20518;-59
2022/05/19 04:01:15;;;;;;;5.10;3.00;;;16.80;1.00;;;;;;7372398;19;20474;-60
2022/05/19 04:03:46;;;;;;;6.43;3.13;;;16.90;1.00;;;;;;7392936;19;20007;-59
2022/05/19 04:06:17;;;;;;;8.70;3.20;;;17.10;1.00;;;;;;7370654;19;20089;-59
2022/05/19 04:08:47;;;;;;;6.03;2.60;;;17.60;1.00;;;;;;7368049;19;20034;-60
2022/05/19 04:11:18;;;;;;;4.38;2.80;;;17.70;1.00;;;;;;7365341;19;20081;-60
2022/05/19 04:13:48;;;;;;;4.82;3.00;;;17.30;1.00;;;;;;7370375;19;20022;-59
2022/05/19 04:16:21;;;;;;;4.03;3.03;;;17.20;1.00;;;;;;7370809;19;20007;-60
2022/05/19 04:18:50;;;;;;;5.10;2.95;;;17.20;1.00;;;;;;7388823;19;20010;-60
2022/05/19 04:21:21;;;;;;;3.70;2.60;;;17.40;1.00;;;;;;7363623;19;20013;-58
2022/05/19 04:23:51;;;;;;;8.63;3.22;;;17.60;1.00;;;;;;7367246;19;20355;-58
2022/05/19 04:26:21;;;;;;;4.72;2.88;;;17.90;1.00;;;;;;7370715;19;20324;-59
2022/05/19 04:28:50;;;;;;;4.22;2.83;;;18.60;1.00;;;;;;7367006;19;20017;-59
2022/05/19 04:31:23;;;;;;;4.43;2.70;;;18.80;1.00;;;;;;7365264;19;20074;-59
2022/05/19 04:33:53;;;;;;;5.55;2.72;;;19.50;1.00;;;;;;7391807;19;20499;-59
2022/05/19 04:36:23;;;;;;;3.55;2.90;;;19.80;1.00;;;;;;7369740;19;20029;-59
2022/05/19 04:38:53;;;;;;;4.43;2.40;;;19.90;1.00;;;;;;7366178;19;20026;-59
2022/05/19 04:41:23;;;;;;;4.70;2.28;;;20.30;1.00;;;;;;7365622;19;20074;-59
2022/05/19 04:43:54;;;;;;;3.90;2.20;;;20.70;1.00;;;;;;7368743;19;20069;-60
2022/05/19 04:46:26;;;;;;;3.25;2.17;;;21.40;1.00;;;;;;7369578;19;20470;-59
2022/05/19 04:48:56;;;;;;;3.53;2.40;;;22.00;1.00;;;;;;7385210;19;20026;-59
2022/05/19 04:51:26;;;;;;;6.03;2.20;;;22.30;1.00;;;;;;7365450;19;20110;-60
2022/05/19 04:53:56;;;;;;;2.88;2.42;;;22.50;1.00;;;;;;7366072;19;20010;-59
2022/05/19 04:56:25;;;;;;;5.07;2.22;;;21.60;1.00;;;;;;7369325;19;20017;-60
2022/05/19 04:58:55;;;;;;;4.63;2.25;;;21.00;1.00;;;;;;7361537;19;20114;-59
2022/05/19 05:01:28;;;;;;;4.22;2.47;;;20.80;1.00;;;;;;7364620;19;20014;-59
2022/05/19 05:04:02;;;;;;;4.30;2.55;;;20.80;1.00;;;;;;7389789;19;20477;-59
2022/05/19 05:06:32;;;;;;;4.50;2.92;;;20.90;1.00;;;;;;7368226;19;20474;-59
2022/05/19 05:09:02;;;;;;;3.80;2.22;;;21.50;1.00;;;;;;7360201;19;20016;-61
2022/05/19 05:11:32;;;;;;;3.13;2.50;;;21.60;1.00;;;;;;7364164;19;20018;-60
2022/05/19 05:14:01;;;;;;;2.95;1.95;;;22.00;1.00;;;;;;7367011;19;20016;-61
2022/05/19 05:16:35;;;;;;;5.57;2.80;;;22.40;1.00;;;;;;7367118;19;20019;-60
2022/05/19 05:19:06;;;;;;;6.35;2.50;;;22.20;1.00;;;;;;7381803;19;20086;-60
2022/05/19 05:21:36;;;;;;;3.33;2.30;;;22.10;1.00;;;;;;7363944;19;20015;-59
2022/05/19 05:24:07;;;;;;;6.93;2.80;;;22.10;1.00;;;;;;7365953;19;20617;-59
2022/05/19 05:26:37;;;;;;;2.78;2.55;;;21.60;1.00;;;;;;7368615;19;20013;-61
2022/05/19 05:29:07;;;;;;;6.88;2.90;;;21.00;1.00;;;;;;7361669;19;20006;-59
2022/05/19 05:31:39;;;;;;;5.85;3.25;;;21.00;1.00;;;;;;7364228;19;20481;-59
2022/05/19 05:34:10;;;;;;;7.10;3.15;;;21.00;1.00;;;;;;7389002;19;20014;-59
2022/05/19 05:36:40;;;;;;;4.97;3.25;;;20.90;1.00;;;;;;7367156;19;20098;-59
2022/05/19 05:39:10;;;;;;;7.40;3.55;;;21.20;1.00;;;;;;7362929;19;20090;-59
2022/05/19 05:41:40;;;;;;;7.90;4.57;;;21.50;1.00;;;;;;7363309;19;20006;-60
2022/05/19 05:44:10;;;;;;;8.27;4.00;;;21.50;1.00;;;;;;7364629;19;20017;-59
2022/05/19 05:46:42;;;;;;;7.07;3.80;;;22.20;1.00;;;;;;7366431;19;20018;-59
2022/05/19 05:49:12;;;;;;;4.03;3.30;;;22.20;1.00;;;;;;7372062;19;20006;-60
2022/05/19 05:51:43;;;;;;;8.65;3.95;;;21.80;1.00;;;;;;7384234;19;20026;-60
2022/05/19 05:54:13;;;;;;;10.40;3.83;;;21.40;1.00;;;;;;7365005;19;20031;-59
2022/05/19 05:56:43;;;;;;;4.85;3.28;;;20.10;1.00;;;;;;7367658;19;20011;-59
2022/05/19 05:59:13;;;;;;;5.95;3.60;;;20.40;1.00;;;;;;7361428;19;20012;-59
2022/05/19 06:01:46;;;;;;;7.90;3.38;;;19.90;1.00;;;;;;7361999;19;20034;-59
2022/05/19 06:04:16;;;;;;;5.40;3.15;;;20.10;1.00;;;;;;7365419;19;20015;-59
2022/05/19 06:06:46;;;;;;;3.42;3.03;;;20.90;1.00;;;;;;7388547;19;20035;-59
2022/05/19 06:09:17;;;;;;;4.03;3.28;;;21.70;1.00;;;;;;7359380;19;20017;-60
2022/05/19 06:11:47;;;;;;;5.78;3.05;;;22.80;1.00;;;;;;7362855;19;20112;-58
2022/05/19 06:14:17;;;;;;;7.53;3.55;;;23.00;1.00;;;;;;7365216;19;20050;-59
2022/05/19 06:16:49;;;;;;;8.45;3.33;;;23.00;1.00;;;;;;7367312;19;20011;-59
2022/05/19 06:19:20;;;;;;;5.13;3.05;;;23.80;1.00;;;;;;7360610;19;20492;-60
2022/05/19 06:21:50;;;;;;;4.68;3.03;;;23.40;1.00;;;;;;7382961;19;20058;-60
2022/05/19 06:24:20;;;;;;;3.92;2.83;;;24.10;1.00;;;;;;7364296;19;20011;-60
2022/05/19 06:26:50;;;;;;;4.30;2.75;;;23.50;1.00;;;;;;7364381;19;20021;-59
2022/05/19 06:29:19;;;;;;;5.13;2.70;;;24.00;1.00;;;;;;7358096;19;20010;-59
2022/05/19 06:31:52;;;;;;;3.83;2.60;;;23.80;1.00;;;;;;7361675;19;20538;-60
2022/05/19 06:34:22;;;;;;;8.02;2.70;;;23.80;1.00;;;;;;7364589;19;20014;-59
2022/05/19 06:36:52;;;;;;;4.28;2.55;;;22.90;1.00;;;;;;7387699;19;20070;-59
2022/05/19 06:39:21;;;;;;;5.03;2.50;;;22.20;1.00;;;;;;7358947;19;20006;-59
2022/05/19 06:42:03;;;;;;;5.40;3.13;;;21.50;1.00;;;;;;7359462;19;20014;-60
2022/05/19 06:44:36;;;;;;;7.10;2.67;;;21.70;1.00;;;;;;7363787;19;20017;-59
2022/05/19 06:47:13;;;;;;;4.40;3.00;;;21.50;1.00;;;;;;7366447;19;20011;-59
2022/05/19 06:49:45;;;;;;;4.72;2.60;;;21.90;1.00;;;;;;7360151;19;20017;-60
2022/05/19 06:52:16;;;;;;;5.25;2.80;;;21.70;1.00;;;;;;7361172;19;20021;-61
2022/05/19 06:54:47;;;;;;;4.70;2.90;;;21.80;1.00;;;;;;7385979;19;20014;-60
2022/05/19 06:57:18;;;;;;;11.25;2.85;;;22.40;1.00;;;;;;7364119;19;20021;-60
2022/05/19 06:59:49;;;;;;;5.78;2.75;;;22.70;1.00;;;;;;7359632;19;20007;-58
2022/05/19 07:02:23;;;;;;;5.00;2.70;;;22.40;1.00;;;;;;7359577;19;20010;-60
2022/05/19 07:04:53;;;;;;;4.05;2.60;;;22.20;1.00;;;;;;7364181;19;20025;-59
2022/05/19 07:07:23;;;;;;;3.55;2.47;;;22.30;1.00;;;;;;7364733;19;20058;-60
2022/05/19 07:09:53;;;;;;;5.75;2.47;;;22.10;1.00;;;;;;7381951;19;20025;-59
2022/05/19 07:12:24;;;;;;;4.82;2.25;;;22.50;1.00;;;;;;7359087;19;20565;-59
2022/05/19 07:14:55;;;;;;;6.70;2.83;;;22.80;1.00;;;;;;7362536;19;20042;-59
2022/05/19 07:17:28;;;;;;;13.38;3.08;;;22.80;1.00;;;;;;7364833;19;20020;-59
2022/05/19 07:22:40;;;;;;;3.47;2.40;;;22.40;1.00;;;;;;7363699;19;20363;-60
2022/05/19 07:25:11;;;;;;;4.18;2.80;;;22.90;1.00;;;;;;7391566;19;20007;-60
2022/05/19 07:27:42;;;;;;;10.00;2.88;;;23.10;1.00;;;;;;7370404;19;20026;-60
2022/05/19 07:30:14;;;;;;;4.07;2.42;;;23.40;1.00;;;;;;7368125;19;20020;-60
2022/05/19 07:32:47;;;;;;;5.72;2.65;;;23.30;1.00;;;;;;7367763;19;20110;-60
2022/05/19 07:35:18;;;;;;;4.80;2.30;;;23.80;1.00;;;;;;7369555;19;20017;-59
2022/05/19 07:37:47;;;;;;;8.93;3.40;;;23.60;1.00;;;;;;7368664;19;20014;-62
2022/05/19 07:40:18;;;;;;;3.92;2.25;;;23.60;1.00;;;;;;7367666;19;20085;-63
2022/05/19 07:42:48;;;;;;;4.47;2.38;;;24.00;1.00;;;;;;7386734;19;20138;-60
2022/05/19 07:45:18;;;;;;;3.17;2.10;;;23.90;1.00;;;;;;7368427;19;20083;-61
2022/05/19 07:47:50;;;;;;;4.15;2.55;;;24.10;1.00;;;;;;7369426;19;20538;-60
2022/05/19 07:50:20;;;;;;;3.05;2.70;;;24.10;1.00;;;;;;7365394;19;20427;-60
2022/05/19 07:52:50;;;;;;;3.80;2.70;;;24.10;1.00;;;;;;7366264;19;20501;-60
2022/05/19 07:55:20;;;;;;;4.93;2.50;;;24.30;1.00;;;;;;7367896;19;20488;-60
2022/05/19 07:57:50;;;;;;;6.38;2.90;;;24.30;1.00;;;;;;7390328;19;20022;-59
2022/05/19 08:00:22;;;;;;;5.72;2.55;;;24.20;1.00;;;;;;7366210;19;20012;-59
2022/05/19 08:02:54;;;;;;;4.78;2.80;;;24.00;1.00;;;;;;7364997;19;20082;-60
2022/05/19 08:05:24;;;;;;;8.18;2.88;;;24.50;1.00;;;;;;7369720;19;20014;-59
2022/05/19 08:07:54;;;;;;;5.63;2.95;;;24.70;1.00;;;;;;7369446;19;20495;-60
2022/05/19 08:10:24;;;;;;;5.43;2.20;;;24.50;1.00;;;;;;7366619;19;20010;-60
2022/05/19 08:15:38;;;;;;;6.38;2.80;;;24.40;1.00;;;;;;7368069;19;20025;-60
2022/05/19 08:18:13;;;;;;;6.35;2.92;;;24.50;1.00;;;;;;7368705;19;20089;-60
2022/05/19 08:20:46;;;;;;;6.78;2.97;;;24.50;1.00;;;;;;7366632;19;20132;-60
2022/05/19 08:23:18;;;;;;;7.13;2.60;;;24.80;1.00;;;;;;7364926;19;20509;-60
2022/05/19 08:25:48;;;;;;;3.17;2.60;;;25.10;1.00;;;;;;7367541;19;20016;-60
2022/05/19 08:28:19;;;;;;;5.93;3.00;;;25.20;1.00;;;;;;7367031;19;20035;-61
2022/05/19 08:30:51;;;;;;;5.65;2.63;;;25.30;1.00;;;;;;7388275;19;20022;-60
2022/05/19 08:33:24;;;;;;;4.85;2.42;;;25.50;1.00;;;;;;7364342;19;20031;-61
2022/05/19 08:35:54;;;;;;;3.78;2.35;;;25.20;1.00;;;;;;7366962;19;20022;-60
2022/05/19 08:38:24;;;;;;;3.80;2.63;;;25.10;1.00;;;;;;7367196;19;20454;-60
2022/05/19 08:41:00;;;;;;;5.43;2.30;;;25.50;1.00;;;;;;7364614;19;20406;-60
2022/05/19 08:43:36;;;;;;;5.50;2.65;;;25.30;1.00;;;;;;7366242;19;20082;-59
2022/05/19 08:46:07;;;;;;;4.50;2.70;;;25.70;1.00;;;;;;7388766;19;20010;-60
2022/05/19 08:48:41;;;;;;;2.92;2.50;;;25.60;1.00;;;;;;7368621;19;20676;-60
2022/05/19 08:51:12;;;;;;;4.32;2.72;;;26.00;1.00;;;;;;7362363;19;20014;-60
2022/05/19 08:53:44;;;;;;;5.10;3.00;;;26.40;1.00;;;;;;7366393;19;20011;-59
2022/05/19 08:56:22;;;;;;;6.45;2.85;;;26.10;1.00;;;;;;7369632;19;20010;-60
2022/05/19 08:59:07;;;;;;;5.35;3.05;;;26.50;1.00;;;;;;7367182;19;20021;-60
2022/05/19 09:01:43;;;;;;;7.85;2.95;;;26.50;1.00;;;;;;7366033;19;20035;-60
2022/05/19 09:04:30;;;;;;;6.47;3.00;;;26.00;1.00;;;;;;7369490;19;20094;-60
2022/05/19 09:10:05;;;;;;;6.78;2.65;;;26.70;1.00;;;;;;7363125;19;20015;-59
2022/05/19 09:12:38;;;;;;;9.35;2.45;;;26.90;1.00;;;;;;7363913;19;20015;-60
2022/05/19 09:15:12;;;;;;;5.97;2.88;;;27.10;1.00;;;;;;7366457;19;20018;-60
2022/05/19 09:17:44;;;;;;;3.75;2.20;;;26.90;1.00;;;;;;7366894;19;20346;-60
2022/05/19 09:20:23;;;;;;;2.88;2.40;;;26.90;1.00;;;;;;7363947;19;20021;-59
2022/05/19 09:22:53;;;;;;;3.88;3.10;;;26.70;1.00;;;;;;7362929;19;20485;-61
2022/05/19 09:25:24;;;;;;;3.70;2.45;;;26.90;1.00;;;;;;7365580;19;20014;-59
2022/05/19 09:27:55;;;;;;;4.45;2.60;;;27.00;1.00;;;;;;7386633;19;20016;-61
2022/05/19 09:30:40;;;;;;;4.80;2.50;;;26.30;1.00;;;;;;7362402;19;20074;-61
2022/05/19 09:33:16;;;;;;;6.40;2.90;;;26.50;1.00;;;;;;7363018;19;20017;-60
2022/05/19 09:35:52;;;;;;;5.05;2.40;;;26.80;1.00;;;;;;7365898;19;20078;-59
2022/05/19 09:38:33;;;;;;;3.47;2.55;;;26.20;1.00;;;;;;7366180;19;20016;-60
2022/05/19 09:41:07;;;;;;;3.92;2.60;;;27.00;1.00;;;;;;7362562;19;20011;-60
2022/05/19 09:43:37;;;;;;;;;;;27.50;1.00;;;;;;7364647;19;20018;-60
2022/05/19 09:46:14;;;;;;;3.67;2.28;;;27.70;1.00;;;;;;7388497;19;19962;-60
2022/05/19 09:48:46;;;;;;;4.22;2.50;;;27.90;1.00;;;;;;7365513;19;20052;-60
2022/05/19 09:51:22;;;;;;;5.75;2.40;;;27.80;1.00;;;;;;7359567;19;20021;-60
2022/05/19 09:53:56;;;;;;;5.38;2.92;;;27.60;1.00;;;;;;7363767;19;20010;-60
2022/05/19 09:56:38;;;;;;;5.13;3.17;;;27.60;1.00;;;;;;7364156;19;20094;-59
2022/05/19 09:59:15;;;;;;;3.65;2.50;;;27.70;1.00;;;;;;7360987;19;20355;-60
2022/05/19 10:01:48;;;;;;;2.83;2.25;;;27.70;1.00;;;;;;7363592;19;20011;-60
2022/05/19 10:04:22;;;;;;;4.93;2.53;;;28.00;1.00;;;;;;7365034;19;20015;-61
2022/05/19 10:06:57;;;;;;;8.80;2.90;;;28.10;1.00;;;;;;7388117;19;20036;-60
2022/05/19 10:09:37;;;;;;;5.85;2.80;;;28.30;1.00;;;;;;7361524;19;20006;-60
2022/05/19 10:12:10;;;;;;;4.70;2.92;;;28.20;1.00;;;;;;7361762;19;20006;-60
2022/05/19 10:14:40;;;;;;;5.80;2.60;;;28.20;1.00;;;;;;7364367;19;20082;-60
2022/05/19 10:17:17;;;;;;;5.43;3.38;;;28.10;1.00;;;;;;7365877;19;20102;-59
2022/05/19 10:19:58;;;;;;;5.20;2.80;;;28.00;1.00;;;;;;7359162;19;20013;-60
2022/05/19 10:22:58;;;;;;;4.57;2.60;;;28.10;1.00;;;;;;7361356;19;20022;-61
2022/05/19 10:25:54;;;;;;;5.53;2.95;;;27.80;1.00;;;;;;7362655;19;20389;-60
2022/05/19 10:31:33;;;;;;;5.53;2.83;;;28.10;1.00;;;;;;7357885;19;20017;-60
2022/05/19 10:34:23;;;;;;;5.78;3.03;;;28.50;1.00;;;;;;7385118;19;20023;-60
2022/05/19 10:37:02;;;;;;;5.75;2.88;;;28.10;1.00;;;;;;7365484;19;20010;-61
2022/05/19 10:39:54;;;;;;;5.72;3.42;;;27.90;1.00;;;;;;7360363;19;20066;-62
2022/05/19 10:42:33;;;;;;;5.68;3.10;;;28.20;1.00;;;;;;7359997;19;20018;-60
2022/05/19 10:45:21;;;;;;;7.63;3.30;;;28.30;1.00;;;;;;7364367;19;20010;-62
2022/05/19 10:48:17;;;;;;;4.53;3.30;;;28.40;1.00;;;;;;7362457;19;20010;-61
2022/05/19 10:50:54;;;;;;;5.70;3.10;;;28.60;1.00;;;;;;7359283;19;20620;-60
2022/05/19 10:53:46;;;;;;;3.97;2.95;;;28.70;1.00;;;;;;7360604;19;20010;-60
2022/05/19 10:56:36;;;;;;;6.90;2.95;;;28.30;1.00;;;;;;7364487;19;20015;-60
2022/05/19 10:59:20;;;;;;;4.53;3.05;;;28.70;1.00;;;;;;7361044;19;20014;-62
2022/05/19 11:02:00;;;;;;;5.30;3.30;;;28.70;1.00;;;;;;7358759;19;20094;-62
2022/05/19 11:05:00;;;;;;;4.80;2.95;;;28.60;1.00;;;;;;7362588;19;20085;-60
2022/05/19 11:07:39;;;;;;;7.65;3.20;;;28.60;1.00;;;;;;7362228;19;20036;-60
2022/05/19 11:10:24;;;;;;;4.15;2.85;;;28.90;1.00;;;;;;7381536;19;20022;-60
2022/05/19 11:13:08;;;;;;;6.03;3.25;;;28.80;1.00;;;;;;7358442;19;20053;-60
2022/05/19 11:15:42;;;;;;;6.57;3.00;;;29.00;1.00;;;;;;7360535;19;20011;-61
2022/05/19 11:18:19;;;;;;;6.88;2.95;;;28.70;1.00;;;;;;7358935;19;20018;-60
2022/05/19 11:21:03;;;;;;;5.95;2.78;;;29.00;1.00;;;;;;7359736;19;20017;-60
2022/05/19 11:23:43;;;;;;;6.77;3.00;;;29.20;1.00;;;;;;7361494;19;20063;-60
2022/05/19 11:26:27;;;;;;;9.38;3.30;;;29.20;1.00;;;;;;7364169;19;20251;-60
2022/05/19 11:29:25;;;;;;;7.50;3.35;;;29.00;1.00;;;;;;7362245;19;20010;-60
2022/05/19 11:32:03;;;;;;;4.82;2.70;;;29.40;1.00;;;;;;7357944;19;20026;-60
2022/05/19 11:34:39;;;;;;;5.22;3.10;;;29.40;1.00;;;;;;7362381;19;20083;-60
2022/05/19 11:37:23;;;;;;;9.70;3.40;;;29.70;1.00;;;;;;7385031;19;20086;-61
2022/05/19 11:40:04;;;;;;;8.77;3.28;;;29.80;1.00;;;;;;7357152;19;20501;-60
2022/05/19 11:42:41;;;;;;;4.25;3.05;;;29.80;1.00;;;;;;7356637;19;20021;-60
2022/05/19 11:45:18;;;;;;;6.72;3.00;;;29.70;1.00;;;;;;7360455;19;20014;-60
2022/05/19 11:56:14;;;;;;;5.55;2.70;;;29.70;1.00;;;;;;7361813;19;19928;-62
2022/05/19 11:58:45;;;;;;;8.77;2.72;;;29.80;1.00;;;;;;7361486;19;20010;-61
2022/05/19 12:01:23;;;;;;;9.07;3.38;;;29.90;1.00;;;;;;7352424;19;20377;-61
2022/05/19 12:04:01;;;;;;;5.78;3.00;;;29.90;1.00;;;;;;7385151;19;20110;-60
2022/05/19 12:06:34;;;;;;;6.85;3.33;;;30.00;1.00;;;;;;7362140;19;20016;-60
2022/05/19 12:09:09;;;;;;;4.47;2.97;;;30.30;1.00;;;;;;7365140;19;20018;-61
2022/05/19 12:11:54;;;;;;;7.18;3.15;;;30.20;1.00;;;;;;7364881;19;20041;-60
2022/05/19 12:14:38;;;;;;;8.65;3.00;;;29.80;1.00;;;;;;7366656;19;20081;-61
2022/05/19 12:17:31;;;;;;;8.30;3.15;;;29.50;1.00;;;;;;7369761;19;20078;-60
2022/05/19 12:20:03;;;;;;;8.95;2.88;;;30.00;1.00;;;;;;7365012;19;20086;-60
2022/05/19 12:22:37;;;;;;;3.25;2.90;;;30.00;1.00;;;;;;7366861;19;20067;-60
2022/05/19 12:25:29;;;;;;;3.45;2.65;;;30.10;1.00;;;;;;7389128;19;20018;-60
2022/05/19 12:28:08;;;;;;;7.13;2.75;;;30.10;1.00;;;;;;7366179;19;20010;-61
2022/05/19 12:33:32;;;;;;;7.03;3.03;;;29.70;1.00;;;;;;7364124;19;20010;-61
2022/05/19 12:36:07;;;;;;;4.53;3.03;;;30.00;1.00;;;;;;7366691;19;20010;-61
2022/05/19 12:38:39;;;;;;;5.55;2.58;;;30.40;1.00;;;;;;7364138;19;20045;-60
2022/05/19 12:41:35;;;;;;;4.18;2.85;;;30.40;1.00;;;;;;7366506;19;20556;-60
2022/05/19 12:44:46;;;;;;;5.78;3.10;;;30.20;1.00;;;;;;7366749;19;20014;-61
2022/05/19 12:47:22;;;;;;;6.18;3.15;;;30.30;1.00;;;;;;7366957;19;20082;-60
2022/05/19 12:50:26;;;;;;;9.00;3.47;;;30.40;1.00;;;;;;7362886;19;20010;-60
2022/05/19 12:53:10;;;;;;;3.70;2.97;;;30.40;1.00;;;;;;7365042;19;20135;-59
2022/05/19 12:55:54;;;;;;;4.53;3.15;;;30.30;1.00;;;;;;7366649;19;20363;-61
2022/05/19 12:58:50;;;;;;;3.97;2.90;;;30.10;1.00;;;;;;7366732;19;20706;-61
2022/05/19 13:01:29;;;;;;;5.07;3.10;;;30.30;1.00;;;;;;7364731;19;20043;-61
2022/05/19 13:04:10;;;;;;;9.05;3.15;;;30.30;1.00;;;;;;7386095;19;20097;-60
2022/05/19 13:06:52;;;;;;;5.45;2.85;;;30.30;1.00;;;;;;7365675;19;20074;-60
2022/05/19 13:09:25;;;;;;;5.30;3.25;;;29.70;1.00;;;;;;7361858;19;20056;-60
2022/05/19 13:11:58;;;;;;;4.35;3.10;;;30.20;1.00;;;;;;7362483;19;20027;-60
2022/05/19 13:14:34;;;;;;;5.38;3.05;;;30.50;1.00;;;;;;7365283;19;20382;-60
2022/05/19 13:17:12;;;;;;;5.05;2.95;;;30.80;1.00;;;;;;7368632;19;20010;-60
2022/05/19 13:19:43;;;;;;;4.53;2.88;;;31.10;1.00;;;;;;7362716;19;20027;-60
2022/05/19 13:22:26;;;;;;;5.40;3.10;;;31.00;1.00;;;;;;7374257;19;20018;-61
2022/05/19 13:24:58;;;;;;;6.38;3.20;;;31.00;1.00;;;;;;7388779;19;20295;-60
2022/05/19 13:30:26;;;;;;;6.28;3.20;;;30.50;1.00;;;;;;7363683;19;20015;-60
2022/05/19 13:33:07;;;;;;;5.03;3.30;;;30.30;1.00;;;;;;7363716;19;20081;-60
2022/05/19 13:35:38;;;;;;;12.00;4.00;;;30.10;1.00;;;;;;7366263;19;20022;-60
2022/05/19 13:38:22;;;;;;;11.32;3.17;;;30.10;1.00;;;;;;7366844;19;20018;-60
2022/05/19 13:40:55;;;;;;;6.90;2.95;;;30.30;1.00;;;;;;7364304;19;20018;-60
2022/05/19 13:43:34;;;;;;;4.20;3.08;;;30.50;1.00;;;;;;7362011;19;20034;-60
2022/05/19 13:46:08;;;;;;;5.90;3.10;;;30.30;1.00;;;;;;7386334;19;20016;-60
2022/05/19 13:48:50;;;;;;;7.45;3.25;;;30.40;1.00;;;;;;7365090;19;20074;-60
2022/05/19 13:51:24;;;;;;;8.82;3.25;;;30.60;1.00;;;;;;7361706;19;20039;-61
2022/05/19 13:53:59;;;;;;;3.20;2.85;;;30.50;1.00;;;;;;7361449;19;20030;-61
2022/05/19 13:56:38;;;;;;;7.07;3.42;;;30.50;1.00;;;;;;7367149;19;20010;-59
2022/05/19 13:59:09;;;;;;;8.00;3.20;;;30.70;1.00;;;;;;7363100;19;20014;-59
2022/05/19 14:01:43;;;;;;;5.72;3.05;;;30.40;1.00;;;;;;7365986;19;20010;-60